Weather at Campo di Volo Pasiano

Public forecast

Using degrees Celsius for public forecast. Weather courtesy of forecast.io.

Closest aviation weather report (METAR) to Campo di Volo Pasiano

Closest report is Aviano Air Base, 12.0 nm (22.2 km) N. Retrieved 2020/09/22 07:55 UTC (26 minutes ago):

LIPA 220755Z 04006KT 9999 FEW015 BKN070 18/17 Q1015 RMK OVC VIS MIN 9999 WIND THR05 /////KT WIND THR23 /////KT A2998 BLU

Closest aviation forecast (TAF) to Campo di Volo Pasiano

Forecast is more than 12 hours old.

Closest forecast is Aviano Air Base, 12.0 nm (22.2 km) N. Retrieved 2015/11/03 12:24 UTC (5 years ago):

TAF TAF LIPA 031100Z 0312/0324 VRB03KT CAVOK